Bement, Illinois
Current Conditions -  °F | °C
As of 3:54 AM on Saturday 25 Oct 2014 (Local Time) from KDEC Reporting Station
Clear Clear  
Wind Chill: 60°   Ceiling: Unl
Heat Index: 60°   Visibility: 10mi
Dew Point: 53°   Wind: 8mph
Humidity: 78%   Direction: 250°WSW
Pressure: 29.95"   Gusts: NA
Location:  39.92°N, 88.57°W
Report Text: KDEC 250854Z AUTO 25007KT 10SM CLR 16/12 A2995 RMK AO2 SLP140 T01560117 58005 TSNO
Loading
Personal Weather Stations






























Interactive Weather Map
Tropical Storm Tracking
New forecast layout! Learn more

10-Day Weather Forecast

Advertisements
Track Severe Weather on mobile